createdAt,value
2023-08-29T00:04:52.462Z,17.59
2023-08-29T00:09:57.724Z,17.53
2023-08-29T00:15:05.119Z,17.47
2023-08-29T00:20:11.644Z,17.48
2023-08-29T00:25:17.526Z,17.46
2023-08-29T00:30:21.807Z,17.51
2023-08-29T00:35:26.415Z,17.50
2023-08-29T00:40:32.734Z,17.51
2023-08-29T00:45:38.871Z,17.53
2023-08-29T00:50:43.582Z,17.56
2023-08-29T00:55:50.966Z,17.59
2023-08-29T01:00:55.357Z,17.63
2023-08-29T01:05:59.845Z,17.60
2023-08-29T01:11:10.764Z,17.61
2023-08-29T01:16:20.555Z,17.55
2023-08-29T01:21:33.357Z,17.52
2023-08-29T01:26:38.971Z,17.48
2023-08-29T01:31:43.546Z,17.46
2023-08-29T01:36:48.933Z,17.26
2023-08-29T01:41:54.436Z,17.20
2023-08-29T01:46:58.603Z,17.13
2023-08-29T01:52:02.937Z,16.97
2023-08-29T01:57:10.396Z,16.85
2023-08-29T02:02:16.304Z,16.71
2023-08-29T02:07:20.813Z,16.68
2023-08-29T02:12:26.316Z,16.55
2023-08-29T02:17:31.502Z,16.47
2023-08-29T02:22:35.758Z,16.17
2023-08-29T02:27:41.002Z,16.07
2023-08-29T02:32:46.926Z,15.97
2023-08-29T02:37:52.145Z,15.91
2023-08-29T02:42:57.793Z,15.71
2023-08-29T02:48:02.116Z,15.65
2023-08-29T02:53:07.775Z,15.48
2023-08-29T02:58:14.566Z,15.35
2023-08-29T03:03:19.148Z,15.24
2023-08-29T03:08:23.310Z,15.25
2023-08-29T03:13:29.326Z,15.18
2023-08-29T03:18:34.054Z,15.15
2023-08-29T03:23:38.598Z,15.20
2023-08-29T03:28:45.101Z,15.20
2023-08-29T03:33:49.857Z,15.10
2023-08-29T03:38:55.309Z,15.10
2023-08-29T03:44:01.565Z,15.20
2023-08-29T03:49:07.376Z,15.21
2023-08-29T03:54:11.254Z,15.22
2023-08-29T03:59:16.588Z,15.33
2023-08-29T04:04:20.715Z,15.25
2023-08-29T04:09:24.724Z,15.40
2023-08-29T04:14:29.975Z,15.44
2023-08-29T04:19:34.765Z,15.51
2023-08-29T04:24:38.957Z,15.59
2023-08-29T04:29:44.446Z,15.65
2023-08-29T04:34:48.611Z,15.73
2023-08-29T04:39:52.787Z,15.80
2023-08-29T04:44:58.284Z,15.84
2023-08-29T04:50:02.418Z,15.97
2023-08-29T04:55:08.147Z,16.16
2023-08-29T05:00:15.967Z,16.17
2023-08-29T05:05:20.833Z,16.02
2023-08-29T05:10:26.109Z,16.05
2023-08-29T05:15:34.040Z,16.12
2023-08-29T05:20:39.315Z,16.32
2023-08-29T05:25:43.758Z,16.37
2023-08-29T05:30:49.216Z,16.24
2023-08-29T05:35:53.510Z,16.44
2023-08-29T05:40:57.894Z,16.60
2023-08-29T05:46:04.380Z,16.64
2023-08-29T05:51:08.486Z,16.69
2023-08-29T05:56:12.553Z,16.94
2023-08-29T06:01:18.057Z,17.13
2023-08-29T06:06:22.641Z,17.09
2023-08-29T06:11:27.385Z,17.26
2023-08-29T06:16:32.985Z,17.38
2023-08-29T06:21:37.490Z,17.53
2023-08-29T06:26:41.797Z,17.31
2023-08-29T06:31:47.077Z,17.48
2023-08-29T06:36:51.141Z,17.69
2023-08-29T06:41:55.234Z,17.65
2023-08-29T06:47:01.256Z,17.69
2023-08-29T06:52:06.080Z,17.59
2023-08-29T06:57:10.726Z,17.89
2023-08-29T07:02:16.004Z,18.41
2023-08-29T07:07:21.450Z,18.45
2023-08-29T07:12:25.340Z,18.30
2023-08-29T07:17:30.867Z,18.23
2023-08-29T07:22:35.488Z,17.87
2023-08-29T07:27:39.702Z,17.60
2023-08-29T07:32:45.838Z,17.52
2023-08-29T07:37:49.807Z,17.71
2023-08-29T07:42:53.729Z,17.60
2023-08-29T07:47:59.198Z,17.57
2023-08-29T07:53:03.867Z,17.75
2023-08-29T07:58:08.079Z,17.74
2023-08-29T08:03:13.702Z,17.72
2023-08-29T08:08:18.005Z,17.61
2023-08-29T08:13:22.251Z,17.77
2023-08-29T08:18:27.931Z,17.83
2023-08-29T08:23:32.232Z,17.98
2023-08-29T08:28:37.323Z,18.05
2023-08-29T08:33:43.009Z,18.33
2023-08-29T08:38:47.012Z,18.48
2023-08-29T08:43:51.011Z,18.69
2023-08-29T08:48:56.369Z,18.88
2023-08-29T08:54:00.942Z,19.15
2023-08-29T08:59:05.858Z,19.22
2023-08-29T09:04:11.284Z,19.26
2023-08-29T09:09:20.457Z,19.17
2023-08-29T09:14:26.099Z,19.46
2023-08-29T09:19:34.417Z,19.46
2023-08-29T09:24:39.094Z,19.41
2023-08-29T09:29:43.343Z,19.32
2023-08-29T09:34:48.955Z,19.37
2023-08-29T09:39:55.086Z,19.51
2023-08-29T09:44:59.233Z,19.63
2023-08-29T09:50:05.283Z,19.68
2023-08-29T09:55:10.821Z,19.56
2023-08-29T10:00:16.355Z,19.47
2023-08-29T10:05:26.405Z,19.46
2023-08-29T10:10:30.934Z,19.50
2023-08-29T10:15:38.803Z,19.33
2023-08-29T10:20:45.602Z,19.39
2023-08-29T10:25:50.819Z,19.24
2023-08-29T10:30:56.763Z,19.08
2023-08-29T10:36:05.007Z,18.88
2023-08-29T10:41:10.821Z,19.12
2023-08-29T10:46:16.279Z,19.28
2023-08-29T10:51:26.206Z,19.51
2023-08-29T10:56:41.941Z,19.77
2023-08-29T11:01:45.822Z,19.86
2023-08-29T11:06:56.538Z,19.79
2023-08-29T11:12:10.648Z,19.68
2023-08-29T11:17:14.637Z,19.72
2023-08-29T11:22:23.954Z,19.65
2023-08-29T11:27:30.003Z,19.83
2023-08-29T11:32:34.592Z,20.01
2023-08-29T11:37:40.806Z,20.09
2023-08-29T11:43:19.875Z,20.17
2023-08-29T11:48:09.808Z,20.37
2023-08-29T11:53:22.530Z,20.31
2023-08-29T11:58:29.417Z,20.08
2023-08-29T12:03:37.064Z,20.08
2023-08-29T12:08:44.345Z,20.19
2023-08-29T12:14:00.540Z,20.37
2023-08-29T12:19:08.233Z,20.10
2023-08-29T12:24:15.291Z,19.94
2023-08-29T12:29:19.615Z,19.83
2023-08-29T12:34:24.020Z,19.74
2023-08-29T12:39:29.781Z,19.68
2023-08-29T12:44:34.060Z,19.57
2023-08-29T12:49:38.439Z,19.33
2023-08-29T12:54:44.242Z,19.24
2023-08-29T12:59:48.727Z,19.17
2023-08-29T13:04:52.976Z,19.14
2023-08-29T13:09:58.270Z,19.11
2023-08-29T13:15:02.158Z,18.99
2023-08-29T13:20:08.338Z,18.84
2023-08-29T13:25:13.999Z,18.60
2023-08-29T13:30:18.498Z,18.62
2023-08-29T13:35:22.498Z,18.40
2023-08-29T13:40:27.844Z,18.34
2023-08-29T13:45:31.932Z,18.21
2023-08-29T13:50:35.818Z,18.12
2023-08-29T13:55:41.268Z,18.22
2023-08-29T14:00:45.174Z,18.21
2023-08-29T14:05:49.422Z,18.17
2023-08-29T14:10:59.145Z,18.23
2023-08-29T14:16:04.996Z,18.19
2023-08-29T14:21:10.400Z,18.18
2023-08-29T14:26:15.738Z,18.05
2023-08-29T14:31:23.960Z,18.08
2023-08-29T14:36:27.952Z,18.08
2023-08-29T14:41:33.560Z,18.07
2023-08-29T14:46:37.906Z,17.96
2023-08-29T14:51:41.773Z,18.09
2023-08-29T14:56:47.051Z,18.27
2023-08-29T15:01:51.028Z,18.26
2023-08-29T15:06:56.169Z,18.19
2023-08-29T15:12:01.518Z,18.15
2023-08-29T15:17:06.266Z,18.03
2023-08-29T15:22:10.611Z,18.02
2023-08-29T15:27:15.945Z,17.85
2023-08-29T15:32:20.490Z,17.77
2023-08-29T15:37:24.643Z,17.93
2023-08-29T15:42:31.738Z,18.09
2023-08-29T15:47:35.642Z,18.14
2023-08-29T15:52:39.762Z,18.42
2023-08-29T15:57:45.192Z,18.42
2023-08-29T16:02:49.386Z,18.43
2023-08-29T16:07:53.388Z,18.34
2023-08-29T16:12:58.815Z,18.20
2023-08-29T16:18:03.607Z,18.21
2023-08-29T16:23:07.825Z,18.24
2023-08-29T16:28:13.573Z,18.26
2023-08-29T16:33:17.483Z,17.98
2023-08-29T16:38:21.541Z,18.06
2023-08-29T16:43:27.025Z,18.00
2023-08-29T16:48:31.180Z,18.00
2023-08-29T16:53:35.080Z,18.06
2023-08-29T16:58:40.470Z,17.91
2023-08-29T17:03:44.396Z,17.88
2023-08-29T17:08:48.888Z,17.79
2023-08-29T17:13:54.608Z,17.71
2023-08-29T17:18:59.210Z,17.61
2023-08-29T17:24:03.524Z,17.45
2023-08-29T17:29:09.145Z,17.38
2023-08-29T17:34:14.324Z,17.26
2023-08-29T17:39:18.606Z,17.17
2023-08-29T17:44:24.145Z,17.18
2023-08-29T17:49:28.038Z,17.15
2023-08-29T17:54:32.165Z,17.12
2023-08-29T17:59:37.634Z,17.12
2023-08-29T18:04:41.899Z,17.18
2023-08-29T18:10:06.938Z,17.20
2023-08-29T18:15:13.989Z,17.18
2023-08-29T18:20:18.167Z,17.24
2023-08-29T18:25:22.590Z,17.20
2023-08-29T18:30:27.981Z,17.21
2023-08-29T18:35:32.227Z,17.22
2023-08-29T18:40:36.846Z,17.09
2023-08-29T18:45:42.545Z,17.15
2023-08-29T18:50:46.447Z,17.13
2023-08-29T18:55:50.377Z,17.19
2023-08-29T19:00:56.308Z,17.26
2023-08-29T19:06:00.611Z,17.26
2023-08-29T19:11:06.160Z,17.23
2023-08-29T19:16:11.957Z,17.24
2023-08-29T19:21:16.694Z,17.11
2023-08-29T19:26:21.043Z,17.06
2023-08-29T19:31:26.334Z,17.03
2023-08-29T19:36:30.991Z,17.01
2023-08-29T19:41:35.459Z,16.94
2023-08-29T19:46:40.927Z,16.94
2023-08-29T19:51:45.019Z,17.00
2023-08-29T19:56:48.886Z,16.97
2023-08-29T20:01:54.352Z,17.02
2023-08-29T20:06:58.405Z,16.89
2023-08-29T20:12:02.347Z,16.92
2023-08-29T20:17:08.062Z,16.93
2023-08-29T20:22:13.282Z,16.95
2023-08-29T20:27:17.982Z,16.96
2023-08-29T20:32:24.096Z,17.07
2023-08-29T20:37:31.725Z,17.10
2023-08-29T20:42:37.207Z,17.14
2023-08-29T20:47:43.820Z,17.07
2023-08-29T20:52:47.711Z,16.94
2023-08-29T20:57:51.948Z,16.91
2023-08-29T21:02:57.701Z,16.86
2023-08-29T21:08:02.031Z,16.83
2023-08-29T21:13:06.343Z,16.84
2023-08-29T21:18:12.724Z,16.88
2023-08-29T21:23:16.675Z,16.82
2023-08-29T21:28:23.785Z,16.92
2023-08-29T21:33:29.415Z,16.84
2023-08-29T21:38:34.618Z,16.79
2023-08-29T21:43:38.922Z,16.86
2023-08-29T21:48:44.432Z,16.88
2023-08-29T21:53:48.594Z,16.91
2023-08-29T21:58:53.158Z,16.95
2023-08-29T22:03:58.673Z,17.00
2023-08-29T22:09:04.084Z,17.01
2023-08-29T22:14:07.989Z,16.93
2023-08-29T22:19:13.463Z,16.78
2023-08-29T22:24:17.852Z,16.88
2023-08-29T22:29:21.950Z,16.87
2023-08-29T22:34:27.347Z,16.83
2023-08-29T22:39:32.264Z,16.79
2023-08-29T22:44:36.503Z,16.77
2023-08-29T22:49:41.903Z,16.77
2023-08-29T22:54:45.955Z,16.72
2023-08-29T22:59:49.803Z,16.72
2023-08-29T23:04:55.330Z,16.66
2023-08-29T23:10:00.337Z,16.69
2023-08-29T23:15:05.428Z,16.75
2023-08-29T23:20:12.808Z,16.75
2023-08-29T23:25:17.579Z,16.74
2023-08-29T23:30:21.813Z,16.81
2023-08-29T23:35:27.292Z,16.77
2023-08-29T23:40:31.912Z,16.82
2023-08-29T23:45:37.024Z,16.77
2023-08-29T23:50:42.467Z,16.78
2023-08-29T23:55:46.389Z,16.75
